sensor_id;sensor_type;location;lat;lon;timestamp;pressure;altitude;pressure_sealevel;temperature;humidity
8366;BME280;4220;42.502;24.188;2023-10-13T00:01:24;95778.22;;;10.56;100.00
8366;BME280;4220;42.502;24.188;2023-10-13T00:04:19;95769.22;;;10.57;100.00
8366;BME280;4220;42.502;24.188;2023-10-13T00:07:16;95787.59;;;10.65;100.00
8366;BME280;4220;42.502;24.188;2023-10-13T00:10:25;95780.84;;;10.56;100.00
8366;BME280;4220;42.502;24.188;2023-10-13T00:13:26;95778.81;;;10.58;100.00
8366;BME280;4220;42.502;24.188;2023-10-13T01:15:56;95746.22;;;9.64;100.00
8366;BME280;4220;42.502;24.188;2023-10-13T01:18:45;95747.81;;;9.52;100.00
8366;BME280;4220;42.502;24.188;2023-10-13T01:21:41;95727.25;;;9.61;100.00
8366;BME280;4220;42.502;24.188;2023-10-13T01:24:32;95740.47;;;9.48;100.00
8366;BME280;4220;42.502;24.188;2023-10-13T01:30:13;95743.66;;;9.24;100.00
8366;BME280;4220;42.502;24.188;2023-10-13T01:32:56;95740.44;;;8.94;100.00
8366;BME280;4220;42.502;24.188;2023-10-13T01:35:47;95741.81;;;8.90;100.00
8366;BME280;4220;42.502;24.188;2023-10-13T01:38:41;95738.63;;;9.01;100.00
8366;BME280;4220;42.502;24.188;2023-10-13T01:41:45;95697.88;;;8.89;100.00
8366;BME280;4220;42.502;24.188;2023-10-13T01:44:41;95724.06;;;9.18;100.00
8366;BME280;4220;42.502;24.188;2023-10-13T01:47:36;95735.13;;;9.35;100.00
8366;BME280;4220;42.502;24.188;2023-10-13T01:50:35;95686.59;;;9.14;100.00
8366;BME280;4220;42.502;24.188;2023-10-13T01:53:27;95738.06;;;9.53;100.00
8366;BME280;4220;42.502;24.188;2023-10-13T01:56:17;95732.53;;;9.54;100.00
8366;BME280;4220;42.502;24.188;2023-10-13T02:02:44;95732.38;;;9.62;100.00
8366;BME280;4220;42.502;24.188;2023-10-13T02:05:22;95725.88;;;9.71;100.00
8366;BME280;4220;42.502;24.188;2023-10-13T02:08:21;95725.09;;;9.77;100.00
8366;BME280;4220;42.502;24.188;2023-10-13T02:11:08;95715.09;;;9.79;100.00
8366;BME280;4220;42.502;24.188;2023-10-13T02:17:09;95706.94;;;9.81;100.00
8366;BME280;4220;42.502;24.188;2023-10-13T02:23:16;95713.28;;;9.86;100.00
8366;BME280;4220;42.502;24.188;2023-10-13T02:26:31;95719.78;;;9.91;100.00
8366;BME280;4220;42.502;24.188;2023-10-13T02:36:08;95717.59;;;9.34;100.00
8366;BME280;4220;42.502;24.188;2023-10-13T03:16:01;95682.19;;;9.41;100.00
8366;BME280;4220;42.502;24.188;2023-10-13T03:18:40;95700.94;;;9.40;100.00
8366;BME280;4220;42.502;24.188;2023-10-13T03:21:20;95689.06;;;9.29;100.00
8366;BME280;4220;42.502;24.188;2023-10-13T03:23:59;95689.88;;;9.23;100.00
8366;BME280;4220;42.502;24.188;2023-10-13T03:26:42;95696.75;;;9.11;100.00
8366;BME280;4220;42.502;24.188;2023-10-13T03:29:24;95697.09;;;8.95;100.00
8366;BME280;4220;42.502;24.188;2023-10-13T03:32:04;95691.41;;;8.98;100.00
8366;BME280;4220;42.502;24.188;2023-10-13T03:34:49;95692.25;;;9.05;100.00
8366;BME280;4220;42.502;24.188;2023-10-13T03:37:43;95702.28;;;9.16;100.00
8366;BME280;4220;42.502;24.188;2023-10-13T03:40:16;95697.38;;;9.13;100.00
8366;BME280;4220;42.502;24.188;2023-10-13T03:42:58;95700.44;;;9.16;100.00
8366;BME280;4220;42.502;24.188;2023-10-13T03:45:36;95669.84;;;9.01;100.00
8366;BME280;4220;42.502;24.188;2023-10-13T03:48:11;95688.63;;;9.12;100.00
8366;BME280;4220;42.502;24.188;2023-10-13T03:50:59;95700.66;;;9.21;100.00
8366;BME280;4220;42.502;24.188;2023-10-13T03:53:37;95694.56;;;9.21;100.00
8366;BME280;4220;42.502;24.188;2023-10-13T03:56:19;95687.41;;;9.15;100.00
8366;BME280;4220;42.502;24.188;2023-10-13T03:59:01;95700.28;;;9.25;100.00
8366;BME280;4220;42.502;24.188;2023-10-13T04:01:34;95697.63;;;9.25;100.00
8366;BME280;4220;42.502;24.188;2023-10-13T04:04:29;95706.59;;;9.30;100.00
8366;BME280;4220;42.502;24.188;2023-10-13T04:07:08;95703.25;;;9.08;100.00
8366;BME280;4220;42.502;24.188;2023-10-13T04:10:11;95690.97;;;8.94;100.00
8366;BME280;4220;42.502;24.188;2023-10-13T04:12:56;95693.25;;;8.63;100.00
8366;BME280;4220;42.502;24.188;2023-10-13T04:15:47;95703.00;;;8.63;100.00
8366;BME280;4220;42.502;24.188;2023-10-13T04:18:30;95692.31;;;8.77;100.00
8366;BME280;4220;42.502;24.188;2023-10-13T04:21:23;95692.28;;;8.71;100.00
8366;BME280;4220;42.502;24.188;2023-10-13T04:24:14;95675.56;;;8.64;100.00
8366;BME280;4220;42.502;24.188;2023-10-13T04:27:22;95685.59;;;8.75;100.00
8366;BME280;4220;42.502;24.188;2023-10-13T04:30:26;95681.69;;;8.71;100.00
8366;BME280;4220;42.502;24.188;2023-10-13T04:33:33;95675.81;;;8.75;100.00
8366;BME280;4220;42.502;24.188;2023-10-13T04:36:22;95675.06;;;8.81;100.00
8366;BME280;4220;42.502;24.188;2023-10-13T04:39:04;95665.31;;;8.82;100.00
8366;BME280;4220;42.502;24.188;2023-10-13T04:41:56;95679.31;;;8.82;100.00
8366;BME280;4220;42.502;24.188;2023-10-13T04:44:44;95684.81;;;8.81;100.00
8366;BME280;4220;42.502;24.188;2023-10-13T04:47:28;95685.41;;;8.76;100.00
8366;BME280;4220;42.502;24.188;2023-10-13T04:50:14;95681.31;;;8.74;100.00
8366;BME280;4220;42.502;24.188;2023-10-13T04:53:30;95686.06;;;8.50;100.00
8366;BME280;4220;42.502;24.188;2023-10-13T04:56:12;95692.25;;;8.64;100.00
8366;BME280;4220;42.502;24.188;2023-10-13T05:02:30;95688.41;;;8.67;100.00
8366;BME280;4220;42.502;24.188;2023-10-13T05:05:22;95692.38;;;8.84;100.00
8366;BME280;4220;42.502;24.188;2023-10-13T05:08:30;95698.97;;;9.01;100.00
8366;BME280;4220;42.502;24.188;2023-10-13T05:11:24;95704.94;;;9.16;100.00
8366;BME280;4220;42.502;24.188;2023-10-13T05:14:24;95706.38;;;9.25;100.00
8366;BME280;4220;42.502;24.188;2023-10-13T05:17:26;95701.94;;;9.32;100.00
8366;BME280;4220;42.502;24.188;2023-10-13T05:20:21;95709.09;;;9.38;100.00
8366;BME280;4220;42.502;24.188;2023-10-13T05:23:12;95720.38;;;9.19;100.00
8366;BME280;4220;42.502;24.188;2023-10-13T05:26:05;95707.34;;;9.11;100.00
8366;BME280;4220;42.502;24.188;2023-10-13T05:29:12;95710.25;;;9.23;100.00
8366;BME280;4220;42.502;24.188;2023-10-13T05:35:31;95718.41;;;9.34;100.00
8366;BME280;4220;42.502;24.188;2023-10-13T05:38:33;95709.94;;;9.58;100.00
8366;BME280;4220;42.502;24.188;2023-10-13T05:41:24;95702.63;;;9.67;100.00
8366;BME280;4220;42.502;24.188;2023-10-13T05:44:34;95710.00;;;9.84;100.00
8366;BME280;4220;42.502;24.188;2023-10-13T05:47:26;95702.69;;;10.00;100.00
8366;BME280;4220;42.502;24.188;2023-10-13T05:50:25;95722.31;;;10.18;100.00
8366;BME280;4220;42.502;24.188;2023-10-13T05:53:15;95713.13;;;10.34;100.00
8366;BME280;4220;42.502;24.188;2023-10-13T05:56:35;95701.31;;;10.36;100.00
8366;BME280;4220;42.502;24.188;2023-10-13T05:59:50;95712.09;;;10.55;100.00
8366;BME280;4220;42.502;24.188;2023-10-13T06:02:45;95712.91;;;10.68;100.00
8366;BME280;4220;42.502;24.188;2023-10-13T06:05:36;95685.56;;;10.61;100.00
8366;BME280;4220;42.502;24.188;2023-10-13T06:08:34;95727.53;;;10.97;100.00
8366;BME280;4220;42.502;24.188;2023-10-13T06:11:45;95732.44;;;11.00;100.00
8366;BME280;4220;42.502;24.188;2023-10-13T06:21:02;95728.19;;;11.50;100.00
8366;BME280;4220;42.502;24.188;2023-10-13T06:23:59;95739.53;;;11.70;100.00
8366;BME280;4220;42.502;24.188;2023-10-13T06:30:30;95729.38;;;11.92;100.00
8366;BME280;4220;42.502;24.188;2023-10-13T06:33:28;95716.91;;;11.92;100.00
8366;BME280;4220;42.502;24.188;2023-10-13T06:36:26;95736.44;;;12.11;100.00
8366;BME280;4220;42.502;24.188;2023-10-13T06:39:30;95733.50;;;12.19;100.00
8366;BME280;4220;42.502;24.188;2023-10-13T06:42:20;95689.81;;;12.08;100.00
8366;BME280;4220;42.502;24.188;2023-10-13T06:45:21;95724.63;;;12.56;100.00
8366;BME280;4220;42.502;24.188;2023-10-13T06:48:10;95726.19;;;12.64;100.00
8366;BME280;4220;42.502;24.188;2023-10-13T06:51:08;95727.94;;;12.52;100.00
8366;BME280;4220;42.502;24.188;2023-10-13T06:54:21;95723.44;;;12.52;100.00
8366;BME280;4220;42.502;24.188;2023-10-13T06:57:10;95715.38;;;12.59;100.00
8366;BME280;4220;42.502;24.188;2023-10-13T07:00:31;95716.41;;;13.00;100.00
8366;BME280;4220;42.502;24.188;2023-10-13T07:03:26;95725.09;;;13.32;100.00
8366;BME280;4220;42.502;24.188;2023-10-13T07:06:08;95721.31;;;13.58;100.00
8366;BME280;4220;42.502;24.188;2023-10-13T07:08:59;95720.28;;;13.89;100.00
8366;BME280;4220;42.502;24.188;2023-10-13T07:11:50;95723.78;;;13.89;100.00
8366;BME280;4220;42.502;24.188;2023-10-13T07:14:51;95692.91;;;13.82;100.00
8366;BME280;4220;42.502;24.188;2023-10-13T07:18:01;95723.44;;;14.27;100.00
8366;BME280;4220;42.502;24.188;2023-10-13T07:24:07;95699.47;;;14.50;99.74
8366;BME280;4220;42.502;24.188;2023-10-13T07:27:05;95724.78;;;14.94;99.56
8366;BME280;4220;42.502;24.188;2023-10-13T07:29:56;95710.63;;;15.17;98.35
8366;BME280;4220;42.502;24.188;2023-10-13T08:15:02;95732.19;;;19.48;73.46
8366;BME280;4220;42.502;24.188;2023-10-13T08:18:12;95731.78;;;19.76;72.02
8366;BME280;4220;42.502;24.188;2023-10-13T08:21:08;95727.56;;;20.00;71.09
8366;BME280;4220;42.502;24.188;2023-10-13T08:24:00;95729.00;;;20.23;69.21
8366;BME280;4220;42.502;24.188;2023-10-13T08:27:16;95733.09;;;20.41;67.98
8366;BME280;4220;42.502;24.188;2023-10-13T08:30:29;95732.03;;;20.67;65.30
8366;BME280;4220;42.502;24.188;2023-10-13T13:23:09;95634.63;;;31.03;26.86
8366;BME280;4220;42.502;24.188;2023-10-13T13:25:49;95637.56;;;30.98;26.61
8366;BME280;4220;42.502;24.188;2023-10-13T13:28:59;95637.69;;;31.01;26.71
8366;BME280;4220;42.502;24.188;2023-10-13T13:35:24;95639.03;;;31.40;26.14
8366;BME280;4220;42.502;24.188;2023-10-13T14:14:51;95650.31;;;30.94;26.67
8366;BME280;4220;42.502;24.188;2023-10-13T14:17:36;95651.56;;;31.17;26.39
8366;BME280;4220;42.502;24.188;2023-10-13T14:20:27;95642.09;;;31.27;26.12
8366;BME280;4220;42.502;24.188;2023-10-13T14:23:28;95655.47;;;31.28;26.14
8366;BME280;4220;42.502;24.188;2023-10-13T14:26:20;95663.59;;;31.04;26.57
8366;BME280;4220;42.502;24.188;2023-10-13T14:29:11;95659.44;;;31.19;26.33
8366;BME280;4220;42.502;24.188;2023-10-13T14:32:59;95630.06;;;31.07;26.40
8366;BME280;4220;42.502;24.188;2023-10-13T14:36:04;95658.38;;;31.11;26.13
8366;BME280;4220;42.502;24.188;2023-10-13T14:38:42;95655.28;;;31.00;26.46
8366;BME280;4220;42.502;24.188;2023-10-13T14:41:46;95665.13;;;31.14;26.50
8366;BME280;4220;42.502;24.188;2023-10-13T17:00:59;95731.50;;;20.75;49.28
8366;BME280;4220;42.502;24.188;2023-10-13T17:06:32;95733.13;;;20.76;49.40
8366;BME280;4220;42.502;24.188;2023-10-13T17:09:18;95720.44;;;20.61;49.42
8366;BME280;4220;42.502;24.188;2023-10-13T17:12:01;95722.84;;;20.58;49.63
8366;BME280;4220;42.502;24.188;2023-10-13T17:14:32;95726.06;;;20.40;49.36
8366;BME280;4220;42.502;24.188;2023-10-13T17:17:08;95728.19;;;20.28;50.35
8366;BME280;4220;42.502;24.188;2023-10-13T17:19:42;95729.50;;;20.20;50.67
8366;BME280;4220;42.502;24.188;2023-10-13T17:22:23;95726.25;;;20.18;51.15
8366;BME280;4220;42.502;24.188;2023-10-13T17:24:57;95726.53;;;20.11;51.44
8366;BME280;4220;42.502;24.188;2023-10-13T17:27:42;95719.75;;;20.04;51.96
8366;BME280;4220;42.502;24.188;2023-10-13T17:30:22;95725.94;;;19.94;52.89
8366;BME280;4220;42.502;24.188;2023-10-13T17:33:05;95726.16;;;19.78;53.38
8366;BME280;4220;42.502;24.188;2023-10-13T17:35:39;95729.56;;;19.58;54.68
8366;BME280;4220;42.502;24.188;2023-10-13T17:38:17;95725.97;;;19.06;56.95
8366;BME280;4220;42.502;24.188;2023-10-13T17:40:50;95715.56;;;18.82;57.78
8366;BME280;4220;42.502;24.188;2023-10-13T17:43:19;95721.88;;;18.61;58.68
8366;BME280;4220;42.502;24.188;2023-10-13T17:45:53;95718.31;;;18.29;59.39
8366;BME280;4220;42.502;24.188;2023-10-13T17:48:24;95731.41;;;18.20;60.41
8366;BME280;4220;42.502;24.188;2023-10-13T17:50:52;95734.81;;;18.16;60.38
8366;BME280;4220;42.502;24.188;2023-10-13T17:53:25;95737.81;;;18.19;60.24
8366;BME280;4220;42.502;24.188;2023-10-13T17:56:07;95751.34;;;18.29;59.80
8366;BME280;4220;42.502;24.188;2023-10-13T18:01:37;95750.09;;;17.89;61.10
8366;BME280;4220;42.502;24.188;2023-10-13T18:04:14;95755.16;;;17.85;61.00
8366;BME280;4220;42.502;24.188;2023-10-13T18:06:52;95754.22;;;17.75;61.62
8366;BME280;4220;42.502;24.188;2023-10-13T18:09:34;95753.22;;;17.81;61.46
8366;BME280;4220;42.502;24.188;2023-10-13T18:12:07;95754.53;;;18.00;60.56
8366;BME280;4220;42.502;24.188;2023-10-13T18:14:46;95754.56;;;18.05;60.12
8366;BME280;4220;42.502;24.188;2023-10-13T18:17:31;95764.16;;;17.96;60.90
8366;BME280;4220;42.502;24.188;2023-10-13T18:20:09;95763.19;;;18.07;60.16
8366;BME280;4220;42.502;24.188;2023-10-13T18:22:41;95734.31;;;17.92;59.45
8366;BME280;4220;42.502;24.188;2023-10-13T18:25:10;95776.22;;;18.20;59.31
8366;BME280;4220;42.502;24.188;2023-10-13T18:27:57;95771.09;;;18.18;59.31
8366;BME280;4220;42.502;24.188;2023-10-13T18:30:33;95776.66;;;18.12;59.68
8366;BME280;4220;42.502;24.188;2023-10-13T18:33:06;95770.19;;;18.08;59.88
8366;BME280;4220;42.502;24.188;2023-10-13T18:35:50;95777.72;;;17.89;60.80
8366;BME280;4220;42.502;24.188;2023-10-13T18:38:30;95774.00;;;17.69;61.63
8366;BME280;4220;42.502;24.188;2023-10-13T18:41:06;95770.88;;;17.38;62.19
8366;BME280;4220;42.502;24.188;2023-10-13T18:43:44;95781.19;;;17.46;62.35
8366;BME280;4220;42.502;24.188;2023-10-13T18:46:19;95773.97;;;17.30;62.87
8366;BME280;4220;42.502;24.188;2023-10-13T18:48:57;95787.69;;;17.34;63.13
8366;BME280;4220;42.502;24.188;2023-10-13T18:51:37;95794.59;;;17.46;62.38
8366;BME280;4220;42.502;24.188;2023-10-13T18:54:16;95787.91;;;17.49;61.53
8366;BME280;4220;42.502;24.188;2023-10-13T18:56:50;95791.16;;;17.51;61.81
8366;BME280;4220;42.502;24.188;2023-10-13T18:59:24;95787.16;;;17.32;62.61
8366;BME280;4220;42.502;24.188;2023-10-13T19:02:01;95790.41;;;17.17;63.54
8366;BME280;4220;42.502;24.188;2023-10-13T19:04:30;95796.34;;;17.19;63.77
8366;BME280;4220;42.502;24.188;2023-10-13T19:07:07;95796.56;;;17.18;64.16
8366;BME280;4220;42.502;24.188;2023-10-13T19:09:35;95796.25;;;17.14;64.21
8366;BME280;4220;42.502;24.188;2023-10-13T19:12:14;95811.34;;;17.04;64.87
8366;BME280;4220;42.502;24.188;2023-10-13T19:14:48;95797.78;;;16.93;64.74
8366;BME280;4220;42.502;24.188;2023-10-13T19:17:20;95792.00;;;16.68;65.78
8366;BME280;4220;42.502;24.188;2023-10-13T19:19:54;95803.03;;;16.55;66.85
8366;BME280;4220;42.502;24.188;2023-10-13T19:22:23;95810.63;;;16.75;65.79
8366;BME280;4220;42.502;24.188;2023-10-13T19:25:00;95788.63;;;16.73;64.90
8366;BME280;4220;42.502;24.188;2023-10-13T19:30:38;95806.31;;;16.90;64.99
8366;BME280;4220;42.502;24.188;2023-10-13T19:33:13;95762.97;;;16.32;66.05
8366;BME280;4220;42.502;24.188;2023-10-13T19:35:55;95798.34;;;16.62;65.92
8366;BME280;4220;42.502;24.188;2023-10-13T19:38:27;95767.41;;;16.55;65.06
8366;BME280;4220;42.502;24.188;2023-10-13T19:40:56;95810.28;;;16.88;64.82
8366;BME280;4220;42.502;24.188;2023-10-13T19:43:29;95812.47;;;16.91;64.38
8366;BME280;4220;42.502;24.188;2023-10-13T19:46:10;95795.03;;;16.72;64.68
8366;BME280;4220;42.502;24.188;2023-10-13T19:48:52;95806.75;;;16.54;65.62
8366;BME280;4220;42.502;24.188;2023-10-13T19:51:42;95806.34;;;16.34;67.56
8366;BME280;4220;42.502;24.188;2023-10-13T19:57:48;95803.94;;;16.61;66.31
8366;BME280;4220;42.502;24.188;2023-10-13T20:00:48;95800.84;;;16.69;65.78
8366;BME280;4220;42.502;24.188;2023-10-13T20:06:57;95799.72;;;16.65;66.58
8366;BME280;4220;42.502;24.188;2023-10-13T20:09:39;95803.31;;;16.70;66.18
8366;BME280;4220;42.502;24.188;2023-10-13T20:12:50;95796.06;;;16.71;66.25
8366;BME280;4220;42.502;24.188;2023-10-13T20:15:42;95798.19;;;16.69;66.58
8366;BME280;4220;42.502;24.188;2023-10-13T20:18:16;95766.97;;;16.46;66.81
8366;BME280;4220;42.502;24.188;2023-10-13T20:24:26;95789.97;;;16.30;69.25
8366;BME280;4220;42.502;24.188;2023-10-13T20:27:22;95798.06;;;16.19;70.56
8366;BME280;4220;42.502;24.188;2023-10-13T21:01:32;95798.00;;;16.59;67.66
8366;BME280;4220;42.502;24.188;2023-10-13T21:04:10;95788.28;;;16.53;67.50
8366;BME280;4220;42.502;24.188;2023-10-13T21:07:01;95796.75;;;16.50;68.20
8366;BME280;4220;42.502;24.188;2023-10-13T21:09:47;95793.22;;;16.32;70.23
8366;BME280;4220;42.502;24.188;2023-10-13T21:13:01;95764.41;;;16.23;71.08
8366;BME280;4220;42.502;24.188;2023-10-13T21:29:59;95775.22;;;16.28;72.47
8366;BME280;4220;42.502;24.188;2023-10-13T21:33:02;95782.16;;;16.29;71.82
8366;BME280;4220;42.502;24.188;2023-10-13T21:35:50;95778.44;;;16.30;71.89
8366;BME280;4220;42.502;24.188;2023-10-13T21:54:47;95768.91;;;16.06;74.84
8366;BME280;4220;42.502;24.188;2023-10-13T21:57:36;95769.38;;;16.03;74.95
8366;BME280;4220;42.502;24.188;2023-10-13T22:00:27;95772.41;;;16.06;73.75
8366;BME280;4220;42.502;24.188;2023-10-13T22:03:15;95758.66;;;16.03;73.38
8366;BME280;4220;42.502;24.188;2023-10-13T22:06:05;95767.16;;;16.00;74.64
8366;BME280;4220;42.502;24.188;2023-10-13T22:09:09;95761.34;;;16.03;74.94
8366;BME280;4220;42.502;24.188;2023-10-13T22:11:59;95762.16;;;16.03;74.46
8366;BME280;4220;42.502;24.188;2023-10-13T22:35:38;95762.13;;;15.87;77.24
8366;BME280;4220;42.502;24.188;2023-10-13T23:15:09;95764.25;;;15.38;81.08
8366;BME280;4220;42.502;24.188;2023-10-13T23:18:17;95756.03;;;15.40;80.75
8366;BME280;4220;42.502;24.188;2023-10-13T23:24:35;95762.53;;;15.32;82.00
